sensor_id;sensor_type;location;lat;lon;timestamp;P1;durP1;ratioP1;P2;durP2;ratioP2
9409;SDS011;4744;52.576;13.568;2023-09-18T00:00:29;5.97;;;5.53;;
9409;SDS011;4744;52.576;13.568;2023-09-18T00:02:57;5.90;;;5.40;;
9409;SDS011;4744;52.576;13.568;2023-09-18T00:05:27;6.80;;;6.30;;
9409;SDS011;4744;52.576;13.568;2023-09-18T00:07:55;5.80;;;5.40;;
9409;SDS011;4744;52.576;13.568;2023-09-18T00:10:21;6.00;;;5.60;;
9409;SDS011;4744;52.576;13.568;2023-09-18T00:12:50;6.38;;;5.97;;
9409;SDS011;4744;52.576;13.568;2023-09-18T00:15:17;5.57;;;5.18;;
9409;SDS011;4744;52.576;13.568;2023-09-18T00:17:44;6.25;;;5.75;;
9409;SDS011;4744;52.576;13.568;2023-09-18T00:20:10;6.50;;;6.00;;
9409;SDS011;4744;52.576;13.568;2023-09-18T00:22:38;6.43;;;5.80;;
9409;SDS011;4744;52.576;13.568;2023-09-18T00:25:05;5.50;;;5.10;;
9409;SDS011;4744;52.576;13.568;2023-09-18T00:27:33;6.00;;;5.50;;
9409;SDS011;4744;52.576;13.568;2023-09-18T00:30:03;6.95;;;6.35;;
9409;SDS011;4744;52.576;13.568;2023-09-18T00:32:31;6.80;;;6.30;;
9409;SDS011;4744;52.576;13.568;2023-09-18T00:34:58;6.50;;;6.07;;
9409;SDS011;4744;52.576;13.568;2023-09-18T00:37:25;7.07;;;6.57;;
9409;SDS011;4744;52.576;13.568;2023-09-18T00:39:51;7.18;;;6.47;;
9409;SDS011;4744;52.576;13.568;2023-09-18T00:42:18;6.95;;;6.35;;
9409;SDS011;4744;52.576;13.568;2023-09-18T00:44:47;7.45;;;6.85;;
9409;SDS011;4744;52.576;13.568;2023-09-18T00:47:16;6.60;;;6.10;;
9409;SDS011;4744;52.576;13.568;2023-09-18T00:49:44;7.50;;;6.90;;
9409;SDS011;4744;52.576;13.568;2023-09-18T00:52:14;6.70;;;6.20;;
9409;SDS011;4744;52.576;13.568;2023-09-18T00:54:42;7.63;;;6.93;;
9409;SDS011;4744;52.576;13.568;2023-09-18T00:57:10;6.60;;;6.10;;
9409;SDS011;4744;52.576;13.568;2023-09-18T00:59:37;6.95;;;6.35;;
9409;SDS011;4744;52.576;13.568;2023-09-18T01:02:04;7.25;;;6.65;;
9409;SDS011;4744;52.576;13.568;2023-09-18T01:04:32;7.40;;;6.80;;
9409;SDS011;4744;52.576;13.568;2023-09-18T01:07:00;7.22;;;6.53;;
9409;SDS011;4744;52.576;13.568;2023-09-18T01:09:28;8.05;;;7.35;;
9409;SDS011;4744;52.576;13.568;2023-09-18T01:11:59;7.30;;;6.70;;
9409;SDS011;4744;52.576;13.568;2023-09-18T01:14:32;7.72;;;7.03;;
9409;SDS011;4744;52.576;13.568;2023-09-18T01:17:03;6.45;;;5.97;;
9409;SDS011;4744;52.576;13.568;2023-09-18T01:19:40;6.60;;;6.07;;
9409;SDS011;4744;52.576;13.568;2023-09-18T01:22:10;7.85;;;7.07;;
9409;SDS011;4744;52.576;13.568;2023-09-18T01:24:39;7.50;;;6.80;;
9409;SDS011;4744;52.576;13.568;2023-09-18T01:27:08;7.47;;;6.88;;
9409;SDS011;4744;52.576;13.568;2023-09-18T01:29:35;7.22;;;6.55;;
9409;SDS011;4744;52.576;13.568;2023-09-18T01:32:03;7.97;;;7.18;;
9409;SDS011;4744;52.576;13.568;2023-09-18T01:34:31;7.90;;;7.30;;
9409;SDS011;4744;52.576;13.568;2023-09-18T01:37:01;7.43;;;6.80;;
9409;SDS011;4744;52.576;13.568;2023-09-18T01:39:30;7.40;;;6.80;;
9409;SDS011;4744;52.576;13.568;2023-09-18T01:42:00;8.55;;;7.40;;
9409;SDS011;4744;52.576;13.568;2023-09-18T01:44:29;7.78;;;7.07;;
9409;SDS011;4744;52.576;13.568;2023-09-18T01:46:56;8.40;;;7.50;;
9409;SDS011;4744;52.576;13.568;2023-09-18T01:49:28;7.72;;;7.07;;
9409;SDS011;4744;52.576;13.568;2023-09-18T01:51:56;7.97;;;7.28;;
9409;SDS011;4744;52.576;13.568;2023-09-18T01:54:23;7.30;;;6.70;;
9409;SDS011;4744;52.576;13.568;2023-09-18T01:56:50;8.27;;;7.63;;
9409;SDS011;4744;52.576;13.568;2023-09-18T01:59:18;7.95;;;7.35;;
9409;SDS011;4744;52.576;13.568;2023-09-18T02:01:45;7.90;;;7.25;;
9409;SDS011;4744;52.576;13.568;2023-09-18T02:04:12;8.02;;;7.22;;
9409;SDS011;4744;52.576;13.568;2023-09-18T02:06:39;7.38;;;6.78;;
9409;SDS011;4744;52.576;13.568;2023-09-18T02:09:06;7.30;;;6.70;;
9409;SDS011;4744;52.576;13.568;2023-09-18T02:11:34;7.20;;;6.63;;
9409;SDS011;4744;52.576;13.568;2023-09-18T02:14:02;7.30;;;6.60;;
9409;SDS011;4744;52.576;13.568;2023-09-18T02:16:32;7.70;;;7.10;;
9409;SDS011;4744;52.576;13.568;2023-09-18T02:18:59;7.90;;;7.15;;
9409;SDS011;4744;52.576;13.568;2023-09-18T02:21:26;7.75;;;7.15;;
9409;SDS011;4744;52.576;13.568;2023-09-18T02:23:53;7.43;;;6.72;;
9409;SDS011;4744;52.576;13.568;2023-09-18T02:26:21;7.45;;;6.75;;
9409;SDS011;4744;52.576;13.568;2023-09-18T02:28:49;7.65;;;7.05;;
9409;SDS011;4744;52.576;13.568;2023-09-18T02:31:17;7.38;;;6.88;;
9409;SDS011;4744;52.576;13.568;2023-09-18T02:33:46;7.78;;;7.18;;
9409;SDS011;4744;52.576;13.568;2023-09-18T02:36:12;7.85;;;7.22;;
9409;SDS011;4744;52.576;13.568;2023-09-18T02:38:39;7.63;;;6.97;;
9409;SDS011;4744;52.576;13.568;2023-09-18T02:41:06;7.10;;;6.43;;
9409;SDS011;4744;52.576;13.568;2023-09-18T02:43:33;7.80;;;7.10;;
9409;SDS011;4744;52.576;13.568;2023-09-18T02:46:00;7.53;;;6.93;;
9409;SDS011;4744;52.576;13.568;2023-09-18T02:48:27;8.25;;;7.55;;
9409;SDS011;4744;52.576;13.568;2023-09-18T02:50:55;7.10;;;6.60;;
9409;SDS011;4744;52.576;13.568;2023-09-18T02:53:23;6.78;;;6.07;;
9409;SDS011;4744;52.576;13.568;2023-09-18T02:55:51;6.53;;;6.00;;
9409;SDS011;4744;52.576;13.568;2023-09-18T02:58:20;7.15;;;6.55;;
9409;SDS011;4744;52.576;13.568;2023-09-18T03:00:49;7.60;;;6.90;;
9409;SDS011;4744;52.576;13.568;2023-09-18T03:03:16;8.25;;;7.55;;
9409;SDS011;4744;52.576;13.568;2023-09-18T03:05:43;6.88;;;6.38;;
9409;SDS011;4744;52.576;13.568;2023-09-18T03:08:13;6.80;;;6.20;;
9409;SDS011;4744;52.576;13.568;2023-09-18T03:10:41;7.57;;;6.97;;
9409;SDS011;4744;52.576;13.568;2023-09-18T03:13:09;7.63;;;6.95;;
9409;SDS011;4744;52.576;13.568;2023-09-18T03:15:37;7.55;;;6.85;;
9409;SDS011;4744;52.576;13.568;2023-09-18T03:18:05;6.78;;;6.28;;
9409;SDS011;4744;52.576;13.568;2023-09-18T03:20:32;6.75;;;6.22;;
9409;SDS011;4744;52.576;13.568;2023-09-18T03:23:00;7.43;;;6.82;;
9409;SDS011;4744;52.576;13.568;2023-09-18T03:25:29;6.93;;;6.32;;
9409;SDS011;4744;52.576;13.568;2023-09-18T03:27:56;7.35;;;6.75;;
9409;SDS011;4744;52.576;13.568;2023-09-18T03:30:24;6.35;;;5.90;;
9409;SDS011;4744;52.576;13.568;2023-09-18T03:32:51;7.75;;;6.53;;
9409;SDS011;4744;52.576;13.568;2023-09-18T03:35:19;7.05;;;6.55;;
9409;SDS011;4744;52.576;13.568;2023-09-18T03:37:46;6.75;;;6.25;;
9409;SDS011;4744;52.576;13.568;2023-09-18T03:40:14;7.25;;;6.72;;
9409;SDS011;4744;52.576;13.568;2023-09-18T03:42:42;6.93;;;6.43;;
9409;SDS011;4744;52.576;13.568;2023-09-18T03:45:10;7.57;;;6.78;;
9409;SDS011;4744;52.576;13.568;2023-09-18T03:47:37;7.63;;;7.00;;
9409;SDS011;4744;52.576;13.568;2023-09-18T03:50:07;6.93;;;6.38;;
9409;SDS011;4744;52.576;13.568;2023-09-18T03:52:34;6.53;;;6.03;;
9409;SDS011;4744;52.576;13.568;2023-09-18T03:55:01;7.15;;;6.55;;
9409;SDS011;4744;52.576;13.568;2023-09-18T03:57:28;7.38;;;6.78;;
9409;SDS011;4744;52.576;13.568;2023-09-18T03:59:57;6.68;;;6.18;;
9409;SDS011;4744;52.576;13.568;2023-09-18T04:02:24;6.72;;;6.22;;
9409;SDS011;4744;52.576;13.568;2023-09-18T04:04:53;6.50;;;6.00;;
9409;SDS011;4744;52.576;13.568;2023-09-18T04:07:20;7.57;;;6.72;;
9409;SDS011;4744;52.576;13.568;2023-09-18T04:09:47;6.80;;;6.30;;
9409;SDS011;4744;52.576;13.568;2023-09-18T04:12:14;6.80;;;6.30;;
9409;SDS011;4744;52.576;13.568;2023-09-18T04:14:41;7.40;;;6.80;;
9409;SDS011;4744;52.576;13.568;2023-09-18T04:17:09;7.20;;;6.70;;
9409;SDS011;4744;52.576;13.568;2023-09-18T04:19:36;7.10;;;6.50;;
9409;SDS011;4744;52.576;13.568;2023-09-18T04:22:03;6.28;;;5.88;;
9409;SDS011;4744;52.576;13.568;2023-09-18T04:24:30;7.13;;;6.53;;
9409;SDS011;4744;52.576;13.568;2023-09-18T04:26:57;6.97;;;6.43;;
9409;SDS011;4744;52.576;13.568;2023-09-18T04:29:24;6.57;;;6.07;;
9409;SDS011;4744;52.576;13.568;2023-09-18T04:31:51;7.07;;;6.47;;
9409;SDS011;4744;52.576;13.568;2023-09-18T04:34:20;7.05;;;6.45;;
9409;SDS011;4744;52.576;13.568;2023-09-18T04:36:47;6.78;;;6.28;;
9409;SDS011;4744;52.576;13.568;2023-09-18T04:39:14;7.55;;;6.95;;
9409;SDS011;4744;52.576;13.568;2023-09-18T04:41:41;6.85;;;6.30;;
9409;SDS011;4744;52.576;13.568;2023-09-18T04:44:08;7.70;;;7.00;;
9409;SDS011;4744;52.576;13.568;2023-09-18T04:46:37;8.27;;;7.50;;
9409;SDS011;4744;52.576;13.568;2023-09-18T04:49:07;7.30;;;6.80;;
9409;SDS011;4744;52.576;13.568;2023-09-18T04:51:37;7.60;;;7.00;;
9409;SDS011;4744;52.576;13.568;2023-09-18T04:54:04;7.82;;;7.10;;
9409;SDS011;4744;52.576;13.568;2023-09-18T04:56:31;8.10;;;7.40;;
9409;SDS011;4744;52.576;13.568;2023-09-18T04:58:59;8.60;;;8.00;;
9409;SDS011;4744;52.576;13.568;2023-09-18T05:01:26;8.15;;;7.55;;
9409;SDS011;4744;52.576;13.568;2023-09-18T05:03:55;7.95;;;7.15;;
9409;SDS011;4744;52.576;13.568;2023-09-18T05:06:21;7.10;;;6.60;;
9409;SDS011;4744;52.576;13.568;2023-09-18T05:08:50;6.70;;;6.20;;
9409;SDS011;4744;52.576;13.568;2023-09-18T05:11:18;7.90;;;7.30;;
9409;SDS011;4744;52.576;13.568;2023-09-18T05:13:45;7.80;;;7.10;;
9409;SDS011;4744;52.576;13.568;2023-09-18T05:16:12;7.57;;;6.93;;
9409;SDS011;4744;52.576;13.568;2023-09-18T05:18:39;7.25;;;6.63;;
9409;SDS011;4744;52.576;13.568;2023-09-18T05:21:07;9.05;;;8.25;;
9409;SDS011;4744;52.576;13.568;2023-09-18T05:23:35;8.60;;;7.88;;
9409;SDS011;4744;52.576;13.568;2023-09-18T05:26:03;8.43;;;7.72;;
9409;SDS011;4744;52.576;13.568;2023-09-18T05:28:30;8.23;;;7.53;;
9409;SDS011;4744;52.576;13.568;2023-09-18T05:30:57;7.88;;;7.10;;
9409;SDS011;4744;52.576;13.568;2023-09-18T05:33:23;8.55;;;7.78;;
9409;SDS011;4744;52.576;13.568;2023-09-18T05:35:50;7.50;;;6.90;;
9409;SDS011;4744;52.576;13.568;2023-09-18T05:38:17;8.50;;;7.80;;
9409;SDS011;4744;52.576;13.568;2023-09-18T05:40:44;7.18;;;6.15;;
9409;SDS011;4744;52.576;13.568;2023-09-18T05:43:13;8.25;;;7.45;;
9409;SDS011;4744;52.576;13.568;2023-09-18T05:45:40;8.15;;;7.53;;
9409;SDS011;4744;52.576;13.568;2023-09-18T05:48:07;6.93;;;6.43;;
9409;SDS011;4744;52.576;13.568;2023-09-18T05:50:34;7.55;;;6.80;;
9409;SDS011;4744;52.576;13.568;2023-09-18T05:53:02;7.85;;;7.15;;
9409;SDS011;4744;52.576;13.568;2023-09-18T05:55:30;7.55;;;6.95;;
9409;SDS011;4744;52.576;13.568;2023-09-18T05:57:57;7.97;;;7.38;;
9409;SDS011;4744;52.576;13.568;2023-09-18T06:00:25;7.75;;;7.15;;
9409;SDS011;4744;52.576;13.568;2023-09-18T06:02:52;7.32;;;6.72;;
9409;SDS011;4744;52.576;13.568;2023-09-18T06:05:19;7.63;;;7.03;;
9409;SDS011;4744;52.576;13.568;2023-09-18T06:07:47;7.43;;;6.72;;
9409;SDS011;4744;52.576;13.568;2023-09-18T06:10:14;7.03;;;6.43;;
9409;SDS011;4744;52.576;13.568;2023-09-18T06:12:44;7.13;;;6.55;;
9409;SDS011;4744;52.576;13.568;2023-09-18T06:15:11;6.68;;;6.10;;
9409;SDS011;4744;52.576;13.568;2023-09-18T06:17:41;7.35;;;6.65;;
9409;SDS011;4744;52.576;13.568;2023-09-18T06:20:09;6.03;;;5.53;;
9409;SDS011;4744;52.576;13.568;2023-09-18T06:22:38;6.55;;;6.00;;
9409;SDS011;4744;52.576;13.568;2023-09-18T06:25:06;7.05;;;6.35;;
9409;SDS011;4744;52.576;13.568;2023-09-18T06:27:35;6.53;;;5.75;;
9409;SDS011;4744;52.576;13.568;2023-09-18T06:30:03;6.35;;;5.88;;
9409;SDS011;4744;52.576;13.568;2023-09-18T06:32:30;6.13;;;5.63;;
9409;SDS011;4744;52.576;13.568;2023-09-18T06:34:59;6.40;;;5.90;;
9409;SDS011;4744;52.576;13.568;2023-09-18T06:37:26;6.20;;;5.70;;
9409;SDS011;4744;52.576;13.568;2023-09-18T06:39:53;6.30;;;5.80;;
9409;SDS011;4744;52.576;13.568;2023-09-18T06:42:20;6.35;;;5.75;;
9409;SDS011;4744;52.576;13.568;2023-09-18T06:44:47;7.07;;;6.03;;
9409;SDS011;4744;52.576;13.568;2023-09-18T06:47:13;7.57;;;6.32;;
9409;SDS011;4744;52.576;13.568;2023-09-18T06:49:40;6.65;;;5.85;;
9409;SDS011;4744;52.576;13.568;2023-09-18T06:52:09;6.80;;;6.18;;
9409;SDS011;4744;52.576;13.568;2023-09-18T06:54:38;6.75;;;6.15;;
9409;SDS011;4744;52.576;13.568;2023-09-18T06:57:04;6.55;;;5.95;;
9409;SDS011;4744;52.576;13.568;2023-09-18T06:59:31;5.45;;;5.00;;
9409;SDS011;4744;52.576;13.568;2023-09-18T07:01:59;6.38;;;5.78;;
9409;SDS011;4744;52.576;13.568;2023-09-18T07:04:27;6.25;;;5.65;;
9409;SDS011;4744;52.576;13.568;2023-09-18T07:06:53;5.60;;;5.20;;
9409;SDS011;4744;52.576;13.568;2023-09-18T07:09:23;6.50;;;5.55;;
9409;SDS011;4744;52.576;13.568;2023-09-18T07:11:51;6.53;;;5.82;;
9409;SDS011;4744;52.576;13.568;2023-09-18T07:14:18;5.32;;;4.93;;
9409;SDS011;4744;52.576;13.568;2023-09-18T07:16:45;6.00;;;5.50;;
9409;SDS011;4744;52.576;13.568;2023-09-18T07:19:11;6.32;;;5.13;;
9409;SDS011;4744;52.576;13.568;2023-09-18T07:21:42;6.05;;;5.03;;
9409;SDS011;4744;52.576;13.568;2023-09-18T07:24:09;8.85;;;5.30;;
9409;SDS011;4744;52.576;13.568;2023-09-18T07:26:43;5.22;;;4.82;;
9409;SDS011;4744;52.576;13.568;2023-09-18T07:29:11;5.35;;;4.95;;
9409;SDS011;4744;52.576;13.568;2023-09-18T07:31:40;4.70;;;4.40;;
9409;SDS011;4744;52.576;13.568;2023-09-18T07:34:07;5.03;;;4.63;;
9409;SDS011;4744;52.576;13.568;2023-09-18T07:36:34;5.78;;;5.32;;
9409;SDS011;4744;52.576;13.568;2023-09-18T07:39:01;5.10;;;4.70;;
9409;SDS011;4744;52.576;13.568;2023-09-18T07:41:29;5.25;;;4.75;;
9409;SDS011;4744;52.576;13.568;2023-09-18T07:43:57;4.80;;;4.50;;
9409;SDS011;4744;52.576;13.568;2023-09-18T07:46:24;4.75;;;4.35;;
9409;SDS011;4744;52.576;13.568;2023-09-18T07:48:51;4.80;;;4.40;;
9409;SDS011;4744;52.576;13.568;2023-09-18T07:51:19;4.63;;;4.32;;
9409;SDS011;4744;52.576;13.568;2023-09-18T07:53:45;5.35;;;4.10;;
9409;SDS011;4744;52.576;13.568;2023-09-18T07:56:13;4.80;;;4.40;;
9409;SDS011;4744;52.576;13.568;2023-09-18T07:58:40;6.80;;;4.00;;
9409;SDS011;4744;52.576;13.568;2023-09-18T08:01:08;5.22;;;4.38;;
9409;SDS011;4744;52.576;13.568;2023-09-18T08:03:35;4.40;;;4.05;;
9409;SDS011;4744;52.576;13.568;2023-09-18T08:06:02;3.95;;;3.65;;
9409;SDS011;4744;52.576;13.568;2023-09-18T08:08:30;4.15;;;3.85;;
9409;SDS011;4744;52.576;13.568;2023-09-18T08:11:00;4.22;;;3.92;;
9409;SDS011;4744;52.576;13.568;2023-09-18T08:13:34;4.60;;;4.20;;
9409;SDS011;4744;52.576;13.568;2023-09-18T08:16:00;4.72;;;4.32;;
9409;SDS011;4744;52.576;13.568;2023-09-18T08:18:30;4.65;;;3.97;;
9409;SDS011;4744;52.576;13.568;2023-09-18T08:20:56;4.18;;;3.88;;
9409;SDS011;4744;52.576;13.568;2023-09-18T08:23:24;4.40;;;4.10;;
9409;SDS011;4744;52.576;13.568;2023-09-18T08:25:50;4.30;;;4.00;;
9409;SDS011;4744;52.576;13.568;2023-09-18T08:28:21;4.38;;;4.07;;
9409;SDS011;4744;52.576;13.568;2023-09-18T08:30:47;4.20;;;3.90;;
9409;SDS011;4744;52.576;13.568;2023-09-18T08:33:14;4.13;;;3.83;;
9409;SDS011;4744;52.576;13.568;2023-09-18T08:35:43;4.00;;;3.70;;
9409;SDS011;4744;52.576;13.568;2023-09-18T08:38:11;4.35;;;4.05;;
9409;SDS011;4744;52.576;13.568;2023-09-18T08:40:39;3.85;;;3.65;;
9409;SDS011;4744;52.576;13.568;2023-09-18T08:43:07;3.88;;;3.67;;
9409;SDS011;4744;52.576;13.568;2023-09-18T08:45:37;4.07;;;3.78;;
9409;SDS011;4744;52.576;13.568;2023-09-18T08:48:09;4.13;;;3.67;;
9409;SDS011;4744;52.576;13.568;2023-09-18T08:50:36;4.07;;;3.72;;
9409;SDS011;4744;52.576;13.568;2023-09-18T08:53:06;3.92;;;3.50;;
9409;SDS011;4744;52.576;13.568;2023-09-18T08:55:33;3.50;;;3.22;;
9409;SDS011;4744;52.576;13.568;2023-09-18T08:58:00;3.95;;;3.65;;
9409;SDS011;4744;52.576;13.568;2023-09-18T09:00:27;3.67;;;3.38;;
9409;SDS011;4744;52.576;13.568;2023-09-18T09:02:55;3.40;;;3.10;;
9409;SDS011;4744;52.576;13.568;2023-09-18T09:05:22;3.80;;;3.50;;
9409;SDS011;4744;52.576;13.568;2023-09-18T09:07:49;3.50;;;3.20;;
9409;SDS011;4744;52.576;13.568;2023-09-18T09:10:17;3.33;;;3.03;;
9409;SDS011;4744;52.576;13.568;2023-09-18T09:12:48;3.50;;;3.20;;
9409;SDS011;4744;52.576;13.568;2023-09-18T09:15:18;3.42;;;3.22;;
9409;SDS011;4744;52.576;13.568;2023-09-18T09:17:45;3.55;;;3.25;;
9409;SDS011;4744;52.576;13.568;2023-09-18T09:20:14;3.53;;;3.33;;
9409;SDS011;4744;52.576;13.568;2023-09-18T09:22:42;3.35;;;3.05;;
9409;SDS011;4744;52.576;13.568;2023-09-18T09:27:53;3.30;;;2.95;;
9409;SDS011;4744;52.576;13.568;2023-09-18T09:30:21;3.97;;;3.30;;
9409;SDS011;4744;52.576;13.568;2023-09-18T09:32:50;3.30;;;3.10;;
9409;SDS011;4744;52.576;13.568;2023-09-18T09:35:19;3.45;;;3.25;;
9409;SDS011;4744;52.576;13.568;2023-09-18T09:37:47;2.90;;;2.70;;
9409;SDS011;4744;52.576;13.568;2023-09-18T09:40:15;3.22;;;3.03;;
9409;SDS011;4744;52.576;13.568;2023-09-18T09:42:44;3.05;;;2.85;;
9409;SDS011;4744;52.576;13.568;2023-09-18T09:45:12;3.03;;;2.83;;
9409;SDS011;4744;52.576;13.568;2023-09-18T09:47:41;2.90;;;2.70;;
9409;SDS011;4744;52.576;13.568;2023-09-18T09:50:08;2.97;;;2.78;;
9409;SDS011;4744;52.576;13.568;2023-09-18T09:52:40;3.17;;;2.90;;
9409;SDS011;4744;52.576;13.568;2023-09-18T09:55:19;2.83;;;2.58;;
9409;SDS011;4744;52.576;13.568;2023-09-18T09:57:52;3.13;;;2.83;;
9409;SDS011;4744;52.576;13.568;2023-09-18T10:00:22;3.22;;;3.03;;
9409;SDS011;4744;52.576;13.568;2023-09-18T10:02:55;2.70;;;2.60;;
9409;SDS011;4744;52.576;13.568;2023-09-18T10:05:24;2.60;;;2.50;;
9409;SDS011;4744;52.576;13.568;2023-09-18T10:07:56;3.17;;;2.88;;
9409;SDS011;4744;52.576;13.568;2023-09-18T10:10:31;2.63;;;2.42;;
9409;SDS011;4744;52.576;13.568;2023-09-18T10:13:03;2.88;;;2.45;;
9409;SDS011;4744;52.576;13.568;2023-09-18T10:15:34;2.95;;;2.70;;
9409;SDS011;4744;52.576;13.568;2023-09-18T10:18:04;3.28;;;3.00;;
9409;SDS011;4744;52.576;13.568;2023-09-18T10:20:39;3.08;;;2.88;;
9409;SDS011;4744;52.576;13.568;2023-09-18T10:23:11;2.70;;;2.50;;
9409;SDS011;4744;52.576;13.568;2023-09-18T10:25:50;2.70;;;2.50;;
9409;SDS011;4744;52.576;13.568;2023-09-18T10:28:26;3.45;;;3.03;;
9409;SDS011;4744;52.576;13.568;2023-09-18T10:30:56;3.85;;;2.80;;
9409;SDS011;4744;52.576;13.568;2023-09-18T10:33:24;3.00;;;2.80;;
9409;SDS011;4744;52.576;13.568;2023-09-18T10:35:52;4.40;;;2.95;;
9409;SDS011;4744;52.576;13.568;2023-09-18T10:38:20;3.88;;;3.17;;
9409;SDS011;4744;52.576;13.568;2023-09-18T10:40:48;3.20;;;3.00;;
9409;SDS011;4744;52.576;13.568;2023-09-18T10:43:16;3.30;;;3.10;;
9409;SDS011;4744;52.576;13.568;2023-09-18T10:45:45;3.75;;;2.70;;
9409;SDS011;4744;52.576;13.568;2023-09-18T10:48:13;3.15;;;2.85;;
9409;SDS011;4744;52.576;13.568;2023-09-18T10:50:41;2.85;;;2.75;;
9409;SDS011;4744;52.576;13.568;2023-09-18T10:53:10;3.28;;;3.08;;
9409;SDS011;4744;52.576;13.568;2023-09-18T10:55:37;5.72;;;3.10;;
9409;SDS011;4744;52.576;13.568;2023-09-18T10:58:04;3.20;;;2.88;;
9409;SDS011;4744;52.576;13.568;2023-09-18T11:00:32;4.00;;;3.20;;
9409;SDS011;4744;52.576;13.568;2023-09-18T11:03:12;3.00;;;2.80;;
9409;SDS011;4744;52.576;13.568;2023-09-18T11:05:43;3.08;;;2.92;;
9409;SDS011;4744;52.576;13.568;2023-09-18T11:11:00;6.00;;;3.15;;
9409;SDS011;4744;52.576;13.568;2023-09-18T11:13:35;3.30;;;3.10;;
9409;SDS011;4744;52.576;13.568;2023-09-18T11:16:13;3.53;;;3.33;;
9409;SDS011;4744;52.576;13.568;2023-09-18T11:18:51;3.45;;;3.13;;
9409;SDS011;4744;52.576;13.568;2023-09-18T11:21:23;3.38;;;2.72;;
9409;SDS011;4744;52.576;13.568;2023-09-18T11:23:57;4.22;;;3.30;;
9409;SDS011;4744;52.576;13.568;2023-09-18T11:26:28;3.17;;;2.97;;
9409;SDS011;4744;52.576;13.568;2023-09-18T11:28:56;3.50;;;3.30;;
9409;SDS011;4744;52.576;13.568;2023-09-18T11:34:12;3.80;;;3.50;;
9409;SDS011;4744;52.576;13.568;2023-09-18T11:36:40;3.60;;;3.30;;
9409;SDS011;4744;52.576;13.568;2023-09-18T11:39:08;3.45;;;3.15;;
9409;SDS011;4744;52.576;13.568;2023-09-18T11:41:36;3.45;;;3.25;;
9409;SDS011;4744;52.576;13.568;2023-09-18T11:47:00;3.30;;;3.00;;
9409;SDS011;4744;52.576;13.568;2023-09-18T11:49:30;3.20;;;2.90;;
9409;SDS011;4744;52.576;13.568;2023-09-18T11:51:58;3.03;;;2.83;;
9409;SDS011;4744;52.576;13.568;2023-09-18T11:54:27;3.85;;;3.08;;
9409;SDS011;4744;52.576;13.568;2023-09-18T11:56:55;3.45;;;3.15;;
9409;SDS011;4744;52.576;13.568;2023-09-18T11:59:33;3.45;;;3.15;;
9409;SDS011;4744;52.576;13.568;2023-09-18T12:02:02;4.45;;;3.00;;
9409;SDS011;4744;52.576;13.568;2023-09-18T12:04:32;3.53;;;3.22;;
9409;SDS011;4744;52.576;13.568;2023-09-18T12:06:59;3.30;;;3.10;;
9409;SDS011;4744;52.576;13.568;2023-09-18T12:09:28;12.93;;;7.38;;
9409;SDS011;4744;52.576;13.568;2023-09-18T12:11:56;4.90;;;3.75;;
9409;SDS011;4744;52.576;13.568;2023-09-18T12:14:23;5.20;;;3.40;;
9409;SDS011;4744;52.576;13.568;2023-09-18T12:16:50;3.80;;;3.50;;
9409;SDS011;4744;52.576;13.568;2023-09-18T12:19:17;3.83;;;3.53;;
9409;SDS011;4744;52.576;13.568;2023-09-18T12:21:46;3.45;;;3.15;;
9409;SDS011;4744;52.576;13.568;2023-09-18T12:24:14;3.70;;;3.35;;
9409;SDS011;4744;52.576;13.568;2023-09-18T12:26:41;3.60;;;3.30;;
9409;SDS011;4744;52.576;13.568;2023-09-18T12:29:08;4.15;;;3.40;;
9409;SDS011;4744;52.576;13.568;2023-09-18T12:31:37;3.58;;;3.15;;
9409;SDS011;4744;52.576;13.568;2023-09-18T12:34:04;4.45;;;3.78;;
9409;SDS011;4744;52.576;13.568;2023-09-18T12:36:41;3.40;;;3.10;;
9409;SDS011;4744;52.576;13.568;2023-09-18T12:39:09;3.95;;;3.65;;
9409;SDS011;4744;52.576;13.568;2023-09-18T12:41:37;5.15;;;3.60;;
9409;SDS011;4744;52.576;13.568;2023-09-18T12:44:05;3.63;;;3.42;;
9409;SDS011;4744;52.576;13.568;2023-09-18T12:46:32;4.85;;;3.33;;
9409;SDS011;4744;52.576;13.568;2023-09-18T12:49:14;3.53;;;3.33;;
9409;SDS011;4744;52.576;13.568;2023-09-18T12:51:42;8.00;;;3.10;;
9409;SDS011;4744;52.576;13.568;2023-09-18T12:54:10;3.60;;;3.30;;
9409;SDS011;4744;52.576;13.568;2023-09-18T12:56:41;3.65;;;3.35;;
9409;SDS011;4744;52.576;13.568;2023-09-18T12:59:09;3.70;;;3.45;;
9409;SDS011;4744;52.576;13.568;2023-09-18T13:01:38;3.22;;;3.03;;
9409;SDS011;4744;52.576;13.568;2023-09-18T13:04:06;3.90;;;3.50;;
9409;SDS011;4744;52.576;13.568;2023-09-18T13:06:38;4.90;;;3.15;;
9409;SDS011;4744;52.576;13.568;2023-09-18T13:09:18;3.67;;;3.38;;
9409;SDS011;4744;52.576;13.568;2023-09-18T13:11:52;3.17;;;2.88;;
9409;SDS011;4744;52.576;13.568;2023-09-18T13:14:20;3.72;;;3.42;;
9409;SDS011;4744;52.576;13.568;2023-09-18T13:16:46;4.00;;;3.70;;
9409;SDS011;4744;52.576;13.568;2023-09-18T13:19:13;4.75;;;3.80;;
9409;SDS011;4744;52.576;13.568;2023-09-18T13:21:45;4.05;;;3.72;;
9409;SDS011;4744;52.576;13.568;2023-09-18T13:24:25;3.33;;;3.05;;
9409;SDS011;4744;52.576;13.568;2023-09-18T13:26:52;3.20;;;2.90;;
9409;SDS011;4744;52.576;13.568;2023-09-18T13:29:20;3.70;;;3.40;;
9409;SDS011;4744;52.576;13.568;2023-09-18T13:31:47;3.65;;;3.13;;
9409;SDS011;4744;52.576;13.568;2023-09-18T13:34:15;6.80;;;3.60;;
9409;SDS011;4744;52.576;13.568;2023-09-18T13:36:43;3.90;;;3.42;;
9409;SDS011;4744;52.576;13.568;2023-09-18T13:39:09;5.82;;;3.40;;
9409;SDS011;4744;52.576;13.568;2023-09-18T13:41:37;3.40;;;3.20;;
9409;SDS011;4744;52.576;13.568;2023-09-18T13:44:06;4.50;;;3.25;;
9409;SDS011;4744;52.576;13.568;2023-09-18T13:46:33;3.72;;;3.42;;
9409;SDS011;4744;52.576;13.568;2023-09-18T13:49:01;6.85;;;3.97;;
9409;SDS011;4744;52.576;13.568;2023-09-18T13:51:29;3.72;;;3.42;;
9409;SDS011;4744;52.576;13.568;2023-09-18T13:53:57;5.65;;;3.60;;
9409;SDS011;4744;52.576;13.568;2023-09-18T13:56:24;4.53;;;3.30;;
9409;SDS011;4744;52.576;13.568;2023-09-18T13:58:54;9.80;;;3.80;;
9409;SDS011;4744;52.576;13.568;2023-09-18T14:01:21;3.25;;;3.00;;
9409;SDS011;4744;52.576;13.568;2023-09-18T14:03:50;5.18;;;3.42;;
9409;SDS011;4744;52.576;13.568;2023-09-18T14:06:18;3.60;;;3.00;;
9409;SDS011;4744;52.576;13.568;2023-09-18T14:08:45;3.58;;;3.30;;
9409;SDS011;4744;52.576;13.568;2023-09-18T14:11:12;4.70;;;3.38;;
9409;SDS011;4744;52.576;13.568;2023-09-18T14:13:39;4.00;;;3.55;;
9409;SDS011;4744;52.576;13.568;2023-09-18T14:16:08;8.27;;;3.70;;
9409;SDS011;4744;52.576;13.568;2023-09-18T14:18:35;7.15;;;3.53;;
9409;SDS011;4744;52.576;13.568;2023-09-18T14:21:03;4.07;;;3.00;;
9409;SDS011;4744;52.576;13.568;2023-09-18T14:23:32;5.13;;;3.63;;
9409;SDS011;4744;52.576;13.568;2023-09-18T14:26:00;3.58;;;3.13;;
9409;SDS011;4744;52.576;13.568;2023-09-18T14:28:27;3.67;;;3.38;;
9409;SDS011;4744;52.576;13.568;2023-09-18T14:30:54;3.85;;;3.30;;
9409;SDS011;4744;52.576;13.568;2023-09-18T14:33:22;4.13;;;3.67;;
9409;SDS011;4744;52.576;13.568;2023-09-18T14:35:49;4.10;;;3.22;;
9409;SDS011;4744;52.576;13.568;2023-09-18T14:38:16;4.90;;;3.25;;
9409;SDS011;4744;52.576;13.568;2023-09-18T14:40:43;4.88;;;3.15;;
9409;SDS011;4744;52.576;13.568;2023-09-18T14:43:10;7.15;;;3.40;;
9409;SDS011;4744;52.576;13.568;2023-09-18T14:45:37;4.15;;;3.13;;
9409;SDS011;4744;52.576;13.568;2023-09-18T14:48:05;5.25;;;3.15;;
9409;SDS011;4744;52.576;13.568;2023-09-18T14:50:33;5.22;;;3.38;;
9409;SDS011;4744;52.576;13.568;2023-09-18T14:53:00;6.50;;;3.20;;
9409;SDS011;4744;52.576;13.568;2023-09-18T14:55:28;5.13;;;3.10;;
9409;SDS011;4744;52.576;13.568;2023-09-18T14:57:55;4.00;;;3.47;;
9409;SDS011;4744;52.576;13.568;2023-09-18T15:00:22;5.85;;;3.75;;
9409;SDS011;4744;52.576;13.568;2023-09-18T15:02:50;5.57;;;3.20;;
9409;SDS011;4744;52.576;13.568;2023-09-18T15:05:17;4.85;;;3.10;;
9409;SDS011;4744;52.576;13.568;2023-09-18T15:07:45;5.35;;;3.00;;
9409;SDS011;4744;52.576;13.568;2023-09-18T15:10:12;5.55;;;3.10;;
9409;SDS011;4744;52.576;13.568;2023-09-18T15:12:38;5.75;;;3.20;;
9409;SDS011;4744;52.576;13.568;2023-09-18T15:15:07;3.10;;;2.47;;
9409;SDS011;4744;52.576;13.568;2023-09-18T15:17:35;5.38;;;3.00;;